sensor_id;sensor_type;location;lat;lon;timestamp;pressure;altitude;pressure_sealevel;temperature;humidity
76653;BME280;65563;45.970;12.680;2023-04-07T00:00:04;101440.88;;;5.89;63.12
76653;BME280;65563;45.970;12.680;2023-04-07T00:01:05;101433.97;;;5.98;62.80
76653;BME280;65563;45.970;12.680;2023-04-07T00:02:05;101429.91;;;6.13;62.34
76653;BME280;65563;45.970;12.680;2023-04-07T00:03:05;101435.59;;;6.18;61.79
76653;BME280;65563;45.970;12.680;2023-04-07T00:04:05;101433.25;;;6.15;62.13
76653;BME280;65563;45.970;12.680;2023-04-07T00:05:05;101426.72;;;6.19;61.85
76653;BME280;65563;45.970;12.680;2023-04-07T00:06:06;101427.53;;;6.20;61.71
76653;BME280;65563;45.970;12.680;2023-04-07T00:07:06;101438.91;;;6.20;61.67
76653;BME280;65563;45.970;12.680;2023-04-07T00:08:06;101431.44;;;6.16;61.93
76653;BME280;65563;45.970;12.680;2023-04-07T00:09:06;101439.22;;;6.08;62.23
76653;BME280;65563;45.970;12.680;2023-04-07T00:10:06;101436.44;;;6.19;61.34
76653;BME280;65563;45.970;12.680;2023-04-07T00:11:07;101440.44;;;6.13;61.40
76653;BME280;65563;45.970;12.680;2023-04-07T00:12:07;101429.78;;;6.15;61.63
76653;BME280;65563;45.970;12.680;2023-04-07T00:13:07;101429.78;;;6.15;61.18
76653;BME280;65563;45.970;12.680;2023-04-07T00:14:07;101434.06;;;6.16;61.13
76653;BME280;65563;45.970;12.680;2023-04-07T00:15:07;101429.06;;;6.13;61.43
76653;BME280;65563;45.970;12.680;2023-04-07T00:16:08;101428.25;;;6.12;61.54
76653;BME280;65563;45.970;12.680;2023-04-07T00:17:08;101426.31;;;6.14;61.06
76653;BME280;65563;45.970;12.680;2023-04-07T00:18:08;101422.00;;;6.13;61.06
76653;BME280;65563;45.970;12.680;2023-04-07T00:19:08;101428.53;;;6.09;61.38
76653;BME280;65563;45.970;12.680;2023-04-07T00:20:08;101433.38;;;6.14;61.27
76653;BME280;65563;45.970;12.680;2023-04-07T00:21:09;101430.34;;;6.09;61.46
76653;BME280;65563;45.970;12.680;2023-04-07T00:22:09;101431.78;;;5.93;61.78
76653;BME280;65563;45.970;12.680;2023-04-07T00:23:09;101430.91;;;5.83;61.97
76653;BME280;65563;45.970;12.680;2023-04-07T00:24:09;101426.47;;;5.84;62.85
76653;BME280;65563;45.970;12.680;2023-04-07T00:25:09;101424.81;;;5.83;63.08
76653;BME280;65563;45.970;12.680;2023-04-07T00:26:09;101422.31;;;6.01;62.17
76653;BME280;65563;45.970;12.680;2023-04-07T00:27:10;101433.25;;;6.15;61.17
76653;BME280;65563;45.970;12.680;2023-04-07T00:28:10;101421.59;;;6.18;61.44
76653;BME280;65563;45.970;12.680;2023-04-07T00:29:10;101419.94;;;6.07;61.75
76653;BME280;65563;45.970;12.680;2023-04-07T00:30:10;101419.91;;;6.17;61.21
76653;BME280;65563;45.970;12.680;2023-04-07T00:31:10;101421.88;;;6.15;61.45
76653;BME280;65563;45.970;12.680;2023-04-07T00:32:11;101420.19;;;6.14;61.19
76653;BME280;65563;45.970;12.680;2023-04-07T00:33:11;101414.63;;;6.17;60.63
76653;BME280;65563;45.970;12.680;2023-04-07T00:34:11;101416.84;;;6.21;60.83
76653;BME280;65563;45.970;12.680;2023-04-07T00:35:11;101421.97;;;6.23;60.69
76653;BME280;65563;45.970;12.680;2023-04-07T00:36:11;101418.34;;;6.24;60.46
76653;BME280;65563;45.970;12.680;2023-04-07T00:37:11;101416.97;;;6.20;61.16
76653;BME280;65563;45.970;12.680;2023-04-07T00:38:11;101419.63;;;6.20;61.07
76653;BME280;65563;45.970;12.680;2023-04-07T00:39:12;101411.41;;;6.23;60.81
76653;BME280;65563;45.970;12.680;2023-04-07T00:40:12;101411.03;;;6.18;60.98
76653;BME280;65563;45.970;12.680;2023-04-07T00:41:12;101413.25;;;6.13;60.95
76653;BME280;65563;45.970;12.680;2023-04-07T00:42:12;101415.63;;;6.06;60.66
76653;BME280;65563;45.970;12.680;2023-04-07T00:43:12;101412.59;;;6.11;60.84
76653;BME280;65563;45.970;12.680;2023-04-07T00:44:13;101415.03;;;6.22;60.56
76653;BME280;65563;45.970;12.680;2023-04-07T00:45:13;101412.00;;;6.17;60.78
76653;BME280;65563;45.970;12.680;2023-04-07T00:46:13;101415.22;;;6.11;60.87
76653;BME280;65563;45.970;12.680;2023-04-07T00:47:13;101415.22;;;6.11;61.20
76653;BME280;65563;45.970;12.680;2023-04-07T00:48:14;101412.31;;;6.04;60.93
76653;BME280;65563;45.970;12.680;2023-04-07T00:49:14;101415.94;;;5.93;61.59
76653;BME280;65563;45.970;12.680;2023-04-07T00:50:15;101413.88;;;5.97;61.45
76653;BME280;65563;45.970;12.680;2023-04-07T00:51:15;101412.44;;;6.03;61.37
76653;BME280;65563;45.970;12.680;2023-04-07T00:52:15;101413.72;;;5.98;61.31
76653;BME280;65563;45.970;12.680;2023-04-07T00:53:16;101415.66;;;5.96;61.19
76653;BME280;65563;45.970;12.680;2023-04-07T00:54:16;101408.03;;;5.84;61.48
76653;BME280;65563;45.970;12.680;2023-04-07T00:55:17;101415.22;;;5.82;61.73
76653;BME280;65563;45.970;12.680;2023-04-07T00:56:17;101414.16;;;5.94;61.42
76653;BME280;65563;45.970;12.680;2023-04-07T00:57:17;101412.44;;;6.03;61.24
76653;BME280;65563;45.970;12.680;2023-04-07T00:58:17;101414.81;;;6.06;61.32
76653;BME280;65563;45.970;12.680;2023-04-07T00:59:17;101407.16;;;6.03;61.20
76653;BME280;65563;45.970;12.680;2023-04-07T01:00:18;101406.09;;;5.95;61.28
76653;BME280;65563;45.970;12.680;2023-04-07T01:01:20;101398.56;;;5.91;60.99
76653;BME280;65563;45.970;12.680;2023-04-07T01:02:39;101404.13;;;5.88;61.25
76653;BME280;65563;45.970;12.680;2023-04-07T01:03:44;101393.75;;;5.86;61.13
76653;BME280;65563;45.970;12.680;2023-04-07T01:04:46;101399.28;;;5.93;61.24
76653;BME280;65563;45.970;12.680;2023-04-07T01:05:54;101403.59;;;5.94;61.08
76653;BME280;65563;45.970;12.680;2023-04-07T01:06:56;101400.38;;;5.90;60.80
76653;BME280;65563;45.970;12.680;2023-04-07T01:08:07;101399.28;;;5.83;61.43
76653;BME280;65563;45.970;12.680;2023-04-07T01:09:12;101394.00;;;5.93;61.01
76653;BME280;65563;45.970;12.680;2023-04-07T01:10:16;101388.84;;;5.91;60.83
76653;BME280;65563;45.970;12.680;2023-04-07T01:11:25;101389.97;;;5.89;61.18
76653;BME280;65563;45.970;12.680;2023-04-07T01:12:38;101395.41;;;5.87;61.10
76653;BME280;65563;45.970;12.680;2023-04-07T01:13:45;101394.69;;;5.85;61.15
76653;BME280;65563;45.970;12.680;2023-04-07T01:14:49;101391.78;;;5.88;61.21
76653;BME280;65563;45.970;12.680;2023-04-07T01:15:51;101390.94;;;5.88;60.93
76653;BME280;65563;45.970;12.680;2023-04-07T01:16:51;101391.09;;;5.86;60.87
76653;BME280;65563;45.970;12.680;2023-04-07T01:17:54;101394.56;;;5.77;61.26
76653;BME280;65563;45.970;12.680;2023-04-07T01:18:58;101399.03;;;5.77;60.96
76653;BME280;65563;45.970;12.680;2023-04-07T01:20:04;101392.34;;;5.82;60.35
76653;BME280;65563;45.970;12.680;2023-04-07T01:21:07;101397.59;;;5.82;60.79
76653;BME280;65563;45.970;12.680;2023-04-07T01:22:11;101398.47;;;5.73;60.92
76653;BME280;65563;45.970;12.680;2023-04-07T01:23:14;101394.69;;;5.75;60.78
76653;BME280;65563;45.970;12.680;2023-04-07T01:25:26;101394.31;;;5.80;60.94
76653;BME280;65563;45.970;12.680;2023-04-07T01:26:34;101400.41;;;5.81;61.19
76653;BME280;65563;45.970;12.680;2023-04-07T01:27:41;101391.78;;;5.79;61.12
76653;BME280;65563;45.970;12.680;2023-04-07T01:29:56;101397.22;;;5.58;62.05
76653;BME280;65563;45.970;12.680;2023-04-07T01:30:57;101402.66;;;5.56;62.27
76653;BME280;65563;45.970;12.680;2023-04-07T01:31:59;101402.22;;;5.61;61.93
76653;BME280;65563;45.970;12.680;2023-04-07T01:32:59;101387.22;;;5.71;61.68
76653;BME280;65563;45.970;12.680;2023-04-07T01:34:00;101404.19;;;5.59;62.14
76653;BME280;65563;45.970;12.680;2023-04-07T01:35:02;101399.31;;;5.54;62.01
76653;BME280;65563;45.970;12.680;2023-04-07T01:36:03;101399.72;;;5.49;61.82
76653;BME280;65563;45.970;12.680;2023-04-07T01:37:04;101397.50;;;5.74;61.45
76653;BME280;65563;45.970;12.680;2023-04-07T01:38:05;101387.38;;;5.79;61.25
76653;BME280;65563;45.970;12.680;2023-04-07T01:39:05;101398.88;;;5.78;61.17
76653;BME280;65563;45.970;12.680;2023-04-07T01:40:06;101387.91;;;5.83;61.16
76653;BME280;65563;45.970;12.680;2023-04-07T01:41:07;101390.41;;;5.84;61.06
76653;BME280;65563;45.970;12.680;2023-04-07T01:42:08;101394.28;;;5.90;61.02
76653;BME280;65563;45.970;12.680;2023-04-07T01:43:09;101401.94;;;5.73;61.71
76653;BME280;65563;45.970;12.680;2023-04-07T01:44:10;101403.03;;;5.61;61.93
76653;BME280;65563;45.970;12.680;2023-04-07T01:45:10;101402.66;;;5.56;61.81
76653;BME280;65563;45.970;12.680;2023-04-07T01:46:11;101404.03;;;5.70;61.86
76653;BME280;65563;45.970;12.680;2023-04-07T01:47:11;101403.47;;;5.76;61.29
76653;BME280;65563;45.970;12.680;2023-04-07T01:48:12;101397.59;;;5.82;61.02
76653;BME280;65563;45.970;12.680;2023-04-07T01:49:12;101396.94;;;5.80;61.29
76653;BME280;65563;45.970;12.680;2023-04-07T01:50:14;101405.22;;;5.85;61.06
76653;BME280;65563;45.970;12.680;2023-04-07T01:51:15;101405.22;;;5.85;61.03
76653;BME280;65563;45.970;12.680;2023-04-07T01:52:15;101403.16;;;5.89;61.32
76653;BME280;65563;45.970;12.680;2023-04-07T01:53:16;101401.22;;;5.91;60.95
76653;BME280;65563;45.970;12.680;2023-04-07T01:54:16;101402.31;;;5.88;60.81
76653;BME280;65563;45.970;12.680;2023-04-07T01:55:17;101399.41;;;5.82;61.15
76653;BME280;65563;45.970;12.680;2023-04-07T01:56:17;101403.75;;;5.73;61.70
76653;BME280;65563;45.970;12.680;2023-04-07T01:57:17;101394.97;;;5.82;61.16
76653;BME280;65563;45.970;12.680;2023-04-07T01:58:17;101391.50;;;5.72;61.78
76653;BME280;65563;45.970;12.680;2023-04-07T01:59:18;101399.28;;;5.83;61.50
76653;BME280;65563;45.970;12.680;2023-04-07T02:00:18;101393.19;;;5.83;61.11
76653;BME280;65563;45.970;12.680;2023-04-07T02:01:18;101390.69;;;5.81;61.78
76653;BME280;65563;45.970;12.680;2023-04-07T02:02:18;101389.03;;;5.61;61.84
76653;BME280;65563;45.970;12.680;2023-04-07T02:03:31;101390.56;;;5.73;61.77
76653;BME280;65563;45.970;12.680;2023-04-07T02:04:36;101393.47;;;5.70;61.43
76653;BME280;65563;45.970;12.680;2023-04-07T02:05:38;101392.78;;;5.68;61.58
76653;BME280;65563;45.970;12.680;2023-04-07T02:06:52;101397.75;;;5.71;61.63
76653;BME280;65563;45.970;12.680;2023-04-07T02:08:00;101385.69;;;5.78;61.66
76653;BME280;65563;45.970;12.680;2023-04-07T02:09:05;101393.47;;;5.70;61.49
76653;BME280;65563;45.970;12.680;2023-04-07T02:10:07;101391.41;;;5.64;61.95
76653;BME280;65563;45.970;12.680;2023-04-07T02:11:09;101388.22;;;5.60;61.94
76653;BME280;65563;45.970;12.680;2023-04-07T02:12:10;101394.47;;;5.59;61.80
76653;BME280;65563;45.970;12.680;2023-04-07T02:13:12;101394.03;;;5.64;61.66
76653;BME280;65563;45.970;12.680;2023-04-07T02:14:14;101390.28;;;5.66;62.02
76653;BME280;65563;45.970;12.680;2023-04-07T02:15:14;101396.41;;;5.57;62.20
76653;BME280;65563;45.970;12.680;2023-04-07T02:16:15;101392.53;;;5.52;62.68
76653;BME280;65563;45.970;12.680;2023-04-07T02:17:15;101392.25;;;5.45;62.59
76653;BME280;65563;45.970;12.680;2023-04-07T02:18:16;101391.13;;;5.47;62.38
76653;BME280;65563;45.970;12.680;2023-04-07T02:19:18;101395.28;;;5.40;62.62
76653;BME280;65563;45.970;12.680;2023-04-07T02:20:19;101401.97;;;5.35;63.53
76653;BME280;65563;45.970;12.680;2023-04-07T02:21:20;101398.63;;;5.33;63.04
76653;BME280;65563;45.970;12.680;2023-04-07T02:22:21;101397.94;;;5.31;63.27
76653;BME280;65563;45.970;12.680;2023-04-07T02:23:21;101394.59;;;5.29;63.49
76653;BME280;65563;45.970;12.680;2023-04-07T02:24:21;101394.88;;;5.25;63.45
76653;BME280;65563;45.970;12.680;2023-04-07T02:25:23;101394.19;;;5.23;63.68
76653;BME280;65563;45.970;12.680;2023-04-07T02:26:23;101398.47;;;5.44;63.06
76653;BME280;65563;45.970;12.680;2023-04-07T02:27:23;101396.53;;;5.46;62.43
76653;BME280;65563;45.970;12.680;2023-04-07T02:28:23;101394.47;;;5.40;62.65
76653;BME280;65563;45.970;12.680;2023-04-07T02:29:23;101395.00;;;5.43;62.40
76653;BME280;65563;45.970;12.680;2023-04-07T02:30:24;101393.09;;;5.45;63.02
76653;BME280;65563;45.970;12.680;2023-04-07T02:31:24;101391.56;;;5.43;62.93
76653;BME280;65563;45.970;12.680;2023-04-07T02:32:24;101397.94;;;5.50;63.19
76653;BME280;65563;45.970;12.680;2023-04-07T02:33:24;101389.63;;;5.35;63.28
76653;BME280;65563;45.970;12.680;2023-04-07T02:34:24;101394.59;;;5.38;63.06
76653;BME280;65563;45.970;12.680;2023-04-07T02:35:25;101391.16;;;5.38;63.65
76653;BME280;65563;45.970;12.680;2023-04-07T02:36:25;101392.66;;;5.50;62.73
76653;BME280;65563;45.970;12.680;2023-04-07T02:37:25;101384.34;;;5.45;62.83
76653;BME280;65563;45.970;12.680;2023-04-07T02:38:25;101384.34;;;5.45;63.16
76653;BME280;65563;45.970;12.680;2023-04-07T02:39:25;101385.59;;;5.41;63.14
76653;BME280;65563;45.970;12.680;2023-04-07T02:40:25;101385.59;;;5.31;63.58
76653;BME280;65563;45.970;12.680;2023-04-07T02:41:25;101387.69;;;5.37;63.34
76653;BME280;65563;45.970;12.680;2023-04-07T02:42:26;101382.53;;;5.36;63.19
76653;BME280;65563;45.970;12.680;2023-04-07T02:43:26;101384.50;;;5.24;63.82
76653;BME280;65563;45.970;12.680;2023-04-07T02:44:26;101391.84;;;5.30;63.54
76653;BME280;65563;45.970;12.680;2023-04-07T02:45:26;101382.00;;;5.32;63.62
76653;BME280;65563;45.970;12.680;2023-04-07T02:46:26;101386.28;;;5.14;63.84
76653;BME280;65563;45.970;12.680;2023-04-07T02:47:26;101390.44;;;5.16;64.30
76653;BME280;65563;45.970;12.680;2023-04-07T02:48:27;101388.78;;;5.06;65.06
76653;BME280;65563;45.970;12.680;2023-04-07T02:49:27;101387.09;;;5.05;64.83
76653;BME280;65563;45.970;12.680;2023-04-07T02:50:27;101391.25;;;5.07;65.28
76653;BME280;65563;45.970;12.680;2023-04-07T02:51:27;101391.50;;;4.94;65.82
76653;BME280;65563;45.970;12.680;2023-04-07T02:52:27;101387.66;;;4.89;66.05
76653;BME280;65563;45.970;12.680;2023-04-07T02:53:27;101396.78;;;4.94;66.36
76653;BME280;65563;45.970;12.680;2023-04-07T02:54:27;101394.69;;;4.78;68.23
76653;BME280;65563;45.970;12.680;2023-04-07T02:55:28;101401.75;;;4.88;67.74
76653;BME280;65563;45.970;12.680;2023-04-07T02:56:28;101397.75;;;4.93;68.24
76653;BME280;65563;45.970;12.680;2023-04-07T02:57:28;101396.50;;;4.97;68.71
76653;BME280;65563;45.970;12.680;2023-04-07T02:58:28;101399.00;;;4.89;69.19
76653;BME280;65563;45.970;12.680;2023-04-07T02:59:28;101397.91;;;4.92;69.61
76653;BME280;65563;45.970;12.680;2023-04-07T03:00:28;101393.22;;;5.15;68.43
76653;BME280;65563;45.970;12.680;2023-04-07T03:01:29;101385.16;;;5.07;68.24
76653;BME280;65563;45.970;12.680;2023-04-07T03:02:29;101387.38;;;5.11;67.68
76653;BME280;65563;45.970;12.680;2023-04-07T03:03:29;101384.63;;;5.13;67.15
76653;BME280;65563;45.970;12.680;2023-04-07T03:04:29;101381.28;;;5.11;67.13
76653;BME280;65563;45.970;12.680;2023-04-07T03:05:30;101380.44;;;5.00;67.27
76653;BME280;65563;45.970;12.680;2023-04-07T03:06:30;101377.69;;;4.92;67.75
76653;BME280;65563;45.970;12.680;2023-04-07T03:07:30;101382.66;;;4.95;67.71
76653;BME280;65563;45.970;12.680;2023-04-07T03:08:30;101380.16;;;4.94;68.15
76653;BME280;65563;45.970;12.680;2023-04-07T03:09:30;101379.47;;;4.92;68.58
76653;BME280;65563;45.970;12.680;2023-04-07T03:10:30;101377.66;;;4.83;68.57
76653;BME280;65563;45.970;12.680;2023-04-07T03:11:30;101380.13;;;4.84;68.68
76653;BME280;65563;45.970;12.680;2023-04-07T03:12:31;101376.25;;;4.78;68.78
76653;BME280;65563;45.970;12.680;2023-04-07T03:13:31;101373.06;;;4.75;69.12
76653;BME280;65563;45.970;12.680;2023-04-07T03:14:31;101375.56;;;4.76;68.75
76653;BME280;65563;45.970;12.680;2023-04-07T03:15:31;101373.75;;;4.67;68.96
76653;BME280;65563;45.970;12.680;2023-04-07T03:16:31;101373.59;;;4.69;69.30
76653;BME280;65563;45.970;12.680;2023-04-07T03:17:32;101378.75;;;4.80;68.49
76653;BME280;65563;45.970;12.680;2023-04-07T03:18:32;101374.47;;;4.79;69.00
76653;BME280;65563;45.970;12.680;2023-04-07T03:19:32;101373.50;;;4.90;68.47
76653;BME280;65563;45.970;12.680;2023-04-07T03:20:32;101369.31;;;4.68;68.96
76653;BME280;65563;45.970;12.680;2023-04-07T03:21:32;101370.25;;;4.57;69.13
76653;BME280;65563;45.970;12.680;2023-04-07T03:22:33;101372.06;;;4.66;69.13
76653;BME280;65563;45.970;12.680;2023-04-07T03:23:33;101373.19;;;4.73;68.71
76653;BME280;65563;45.970;12.680;2023-04-07T03:24:33;101368.06;;;4.72;68.66
76653;BME280;65563;45.970;12.680;2023-04-07T03:25:33;101361.00;;;4.72;68.48
76653;BME280;65563;45.970;12.680;2023-04-07T03:26:33;101370.00;;;4.70;68.71
76653;BME280;65563;45.970;12.680;2023-04-07T03:27:34;101365.00;;;4.67;68.64
76653;BME280;65563;45.970;12.680;2023-04-07T03:28:34;101370.16;;;4.68;68.53
76653;BME280;65563;45.970;12.680;2023-04-07T03:29:34;101375.94;;;4.62;68.66
76653;BME280;65563;45.970;12.680;2023-04-07T03:30:34;101377.22;;;4.68;68.56
76653;BME280;65563;45.970;12.680;2023-04-07T03:31:34;101379.53;;;4.61;68.94
76653;BME280;65563;45.970;12.680;2023-04-07T03:32:34;101381.66;;;4.67;69.06
76653;BME280;65563;45.970;12.680;2023-04-07T03:33:34;101382.63;;;4.76;68.53
76653;BME280;65563;45.970;12.680;2023-04-07T03:34:35;101379.56;;;4.71;68.57
76653;BME280;65563;45.970;12.680;2023-04-07T03:35:35;101383.16;;;4.60;69.06
76653;BME280;65563;45.970;12.680;2023-04-07T03:36:35;101387.03;;;4.66;68.50
76653;BME280;65563;45.970;12.680;2023-04-07T03:37:35;101385.84;;;4.49;69.09
76653;BME280;65563;45.970;12.680;2023-04-07T03:38:35;101372.84;;;4.47;69.02
76653;BME280;65563;45.970;12.680;2023-04-07T03:39:35;101372.31;;;4.53;69.19
76653;BME280;65563;45.970;12.680;2023-04-07T03:40:35;101377.19;;;4.58;68.61
76653;BME280;65563;45.970;12.680;2023-04-07T03:41:36;101377.31;;;4.57;68.89
76653;BME280;65563;45.970;12.680;2023-04-07T03:42:36;101377.03;;;4.50;69.27
76653;BME280;65563;45.970;12.680;2023-04-07T03:43:36;101380.03;;;4.45;69.10
76653;BME280;65563;45.970;12.680;2023-04-07T03:44:36;101378.38;;;4.44;69.09
76653;BME280;65563;45.970;12.680;2023-04-07T03:45:37;101379.34;;;4.43;68.89
76653;BME280;65563;45.970;12.680;2023-04-07T03:46:37;101381.84;;;4.45;69.57
76653;BME280;65563;45.970;12.680;2023-04-07T03:47:37;101375.75;;;4.44;69.54
76653;BME280;65563;45.970;12.680;2023-04-07T03:48:37;101380.03;;;4.36;69.99
76653;BME280;65563;45.970;12.680;2023-04-07T03:49:37;101387.84;;;4.26;70.03
76653;BME280;65563;45.970;12.680;2023-04-07T03:50:40;101394.78;;;4.27;69.71
76653;BME280;65563;45.970;12.680;2023-04-07T03:51:40;101383.91;;;4.41;69.08
76653;BME280;65563;45.970;12.680;2023-04-07T03:52:40;101380.03;;;4.45;69.21
76653;BME280;65563;45.970;12.680;2023-04-07T03:53:40;101388.47;;;4.39;68.92
76653;BME280;65563;45.970;12.680;2023-04-07T03:54:41;101377.84;;;4.50;68.23
76653;BME280;65563;45.970;12.680;2023-04-07T03:55:41;101380.59;;;4.39;69.27
76653;BME280;65563;45.970;12.680;2023-04-07T03:56:42;101377.69;;;4.52;68.90
76653;BME280;65563;45.970;12.680;2023-04-07T03:57:42;101377.13;;;4.48;68.93
76653;BME280;65563;45.970;12.680;2023-04-07T03:58:42;101379.75;;;4.48;68.84
76653;BME280;65563;45.970;12.680;2023-04-07T03:59:42;101376.34;;;4.58;68.51
76653;BME280;65563;45.970;12.680;2023-04-07T04:00:43;101376.91;;;4.61;68.42
76653;BME280;65563;45.970;12.680;2023-04-07T04:01:43;101377.31;;;4.57;68.42
76653;BME280;65563;45.970;12.680;2023-04-07T04:02:43;101377.59;;;4.53;68.28
76653;BME280;65563;45.970;12.680;2023-04-07T04:03:43;101371.50;;;4.53;68.50
76653;BME280;65563;45.970;12.680;2023-04-07T04:04:43;101385.84;;;4.49;68.57
76653;BME280;65563;45.970;12.680;2023-04-07T04:05:43;101385.84;;;4.49;68.57
76653;BME280;65563;45.970;12.680;2023-04-07T04:06:44;101391.41;;;4.46;68.57
76653;BME280;65563;45.970;12.680;2023-04-07T04:07:44;101383.63;;;4.44;68.89
76653;BME280;65563;45.970;12.680;2023-04-07T04:08:44;101382.66;;;4.45;68.39
76653;BME280;65563;45.970;12.680;2023-04-07T04:09:44;101381.72;;;4.46;68.44
76653;BME280;65563;45.970;12.680;2023-04-07T04:10:44;101380.75;;;4.47;67.99
76653;BME280;65563;45.970;12.680;2023-04-07T04:11:44;101386.16;;;4.46;68.44
76653;BME280;65563;45.970;12.680;2023-04-07T04:12:45;101381.41;;;4.40;68.63
76653;BME280;65563;45.970;12.680;2023-04-07T04:13:46;101385.03;;;4.48;68.25
76653;BME280;65563;45.970;12.680;2023-04-07T04:14:46;101373.38;;;4.41;68.46
76653;BME280;65563;45.970;12.680;2023-04-07T04:15:46;101371.00;;;4.38;67.86
76653;BME280;65563;45.970;12.680;2023-04-07T04:16:46;101378.53;;;4.43;68.41
76653;BME280;65563;45.970;12.680;2023-04-07T04:17:46;101378.97;;;4.58;68.35
76653;BME280;65563;45.970;12.680;2023-04-07T04:18:47;101374.69;;;4.66;68.03
76653;BME280;65563;45.970;12.680;2023-04-07T04:19:47;101375.25;;;4.70;68.03
76653;BME280;65563;45.970;12.680;2023-04-07T04:20:47;101372.91;;;4.67;67.72
76653;BME280;65563;45.970;12.680;2023-04-07T04:21:47;101370.72;;;4.72;68.11
76653;BME280;65563;45.970;12.680;2023-04-07T04:22:47;101371.00;;;4.78;67.55
76653;BME280;65563;45.970;12.680;2023-04-07T04:23:47;101370.97;;;4.69;67.78
76653;BME280;65563;45.970;12.680;2023-04-07T04:24:48;101369.31;;;4.68;67.59
76653;BME280;65563;45.970;12.680;2023-04-07T04:25:48;101370.56;;;4.64;68.02
76653;BME280;65563;45.970;12.680;2023-04-07T04:26:48;101375.81;;;4.64;67.68
76653;BME280;65563;45.970;12.680;2023-04-07T04:27:48;101371.78;;;4.60;67.56
76653;BME280;65563;45.970;12.680;2023-04-07T04:28:48;101380.97;;;4.75;66.99
76653;BME280;65563;45.970;12.680;2023-04-07T04:29:48;101380.69;;;4.78;67.02
76653;BME280;65563;45.970;12.680;2023-04-07T04:30:48;101380.97;;;4.75;66.58
76653;BME280;65563;45.970;12.680;2023-04-07T04:31:49;101380.78;;;4.67;67.06
76653;BME280;65563;45.970;12.680;2023-04-07T04:32:49;101379.56;;;4.71;67.01
76653;BME280;65563;45.970;12.680;2023-04-07T04:33:49;101374.88;;;4.74;66.97
76653;BME280;65563;45.970;12.680;2023-04-07T04:34:49;101382.75;;;4.74;66.64
76653;BME280;65563;45.970;12.680;2023-04-07T04:35:49;101380.66;;;4.68;67.26
76653;BME280;65563;45.970;12.680;2023-04-07T04:36:49;101380.66;;;4.68;67.05
76653;BME280;65563;45.970;12.680;2023-04-07T04:37:50;101375.13;;;4.71;67.03
76653;BME280;65563;45.970;12.680;2023-04-07T04:38:50;101378.44;;;4.64;66.97
76653;BME280;65563;45.970;12.680;2023-04-07T04:39:50;101382.59;;;4.57;67.33
76653;BME280;65563;45.970;12.680;2023-04-07T04:40:50;101376.59;;;4.54;67.20
76653;BME280;65563;45.970;12.680;2023-04-07T04:41:50;101380.66;;;4.68;66.50
76653;BME280;65563;45.970;12.680;2023-04-07T04:42:50;101379.69;;;4.69;66.67
76653;BME280;65563;45.970;12.680;2023-04-07T04:43:50;101389.53;;;4.77;66.54
76653;BME280;65563;45.970;12.680;2023-04-07T04:44:51;101381.81;;;4.85;65.83
76653;BME280;65563;45.970;12.680;2023-04-07T04:45:51;101387.75;;;4.87;65.91
76653;BME280;65563;45.970;12.680;2023-04-07T04:46:51;101388.47;;;4.89;66.19
76653;BME280;65563;45.970;12.680;2023-04-07T04:47:51;101391.34;;;4.76;66.53
76653;BME280;65563;45.970;12.680;2023-04-07T04:48:51;101391.97;;;4.59;67.12
76653;BME280;65563;45.970;12.680;2023-04-07T04:49:51;101395.44;;;4.60;67.56
76653;BME280;65563;45.970;12.680;2023-04-07T04:50:51;101397.50;;;4.56;68.54
76653;BME280;65563;45.970;12.680;2023-04-07T04:51:52;101381.72;;;4.56;68.40
76653;BME280;65563;45.970;12.680;2023-04-07T04:52:52;101391.16;;;4.59;68.62
76653;BME280;65563;45.970;12.680;2023-04-07T04:53:52;101400.06;;;4.77;67.40
76653;BME280;65563;45.970;12.680;2023-04-07T04:54:52;101400.50;;;4.82;67.24
76653;BME280;65563;45.970;12.680;2023-04-07T04:55:52;101399.41;;;4.85;67.05
76653;BME280;65563;45.970;12.680;2023-04-07T04:56:53;101399.25;;;4.86;67.05
76653;BME280;65563;45.970;12.680;2023-04-07T04:57:53;101398.44;;;4.86;67.04
76653;BME280;65563;45.970;12.680;2023-04-07T04:58:53;101400.78;;;4.79;67.02
76653;BME280;65563;45.970;12.680;2023-04-07T04:59:53;101398.66;;;4.73;66.89
76653;BME280;65563;45.970;12.680;2023-04-07T05:00:53;101394.66;;;4.69;66.84
76653;BME280;65563;45.970;12.680;2023-04-07T05:01:53;101402.44;;;4.70;67.08
76653;BME280;65563;45.970;12.680;2023-04-07T05:02:53;101397.81;;;4.63;66.78
76653;BME280;65563;45.970;12.680;2023-04-07T05:03:54;101401.16;;;4.65;66.55
76653;BME280;65563;45.970;12.680;2023-04-07T05:04:54;101402.19;;;4.52;67.26
76653;BME280;65563;45.970;12.680;2023-04-07T05:05:54;101396.88;;;4.64;67.00
76653;BME280;65563;45.970;12.680;2023-04-07T05:06:54;101399.88;;;4.59;66.92
76653;BME280;65563;45.970;12.680;2023-04-07T05:07:54;101390.94;;;4.71;66.80
76653;BME280;65563;45.970;12.680;2023-04-07T05:08:54;101399.22;;;4.76;66.34
76653;BME280;65563;45.970;12.680;2023-04-07T05:09:54;101400.88;;;4.68;66.61
76653;BME280;65563;45.970;12.680;2023-04-07T05:10:55;101397.00;;;4.72;66.88
76653;BME280;65563;45.970;12.680;2023-04-07T05:11:55;101400.63;;;4.71;66.34
76653;BME280;65563;45.970;12.680;2023-04-07T05:12:55;101395.94;;;4.74;66.20
76653;BME280;65563;45.970;12.680;2023-04-07T05:13:55;101394.81;;;4.77;66.34
76653;BME280;65563;45.970;12.680;2023-04-07T05:14:55;101399.00;;;4.89;66.06
76653;BME280;65563;45.970;12.680;2023-04-07T05:15:55;101394.97;;;4.85;66.08
76653;BME280;65563;45.970;12.680;2023-04-07T05:16:56;101398.28;;;4.87;65.97
76653;BME280;65563;45.970;12.680;2023-04-07T05:17:56;101396.75;;;4.75;66.18
76653;BME280;65563;45.970;12.680;2023-04-07T05:18:56;101395.50;;;4.79;66.10
76653;BME280;65563;45.970;12.680;2023-04-07T05:19:56;101402.69;;;4.77;66.15